createdAt,value
2022-08-14T00:01:10.318Z,7.05
2022-08-14T00:03:41.534Z,6.18
2022-08-14T00:06:25.321Z,6.53
2022-08-14T00:08:59.149Z,5.97
2022-08-14T00:11:31.249Z,5.90
2022-08-14T00:14:01.449Z,5.93
2022-08-14T00:16:41.169Z,5.90
2022-08-14T00:19:21.387Z,6.03
2022-08-14T00:21:50.877Z,5.90
2022-08-14T00:24:28.293Z,6.07
2022-08-14T00:26:57.363Z,5.97
2022-08-14T00:29:40.016Z,6.27
2022-08-14T00:32:52.513Z,5.67
2022-08-14T00:35:01.344Z,5.80
2022-08-14T00:37:29.812Z,5.90
2022-08-14T00:40:00.274Z,5.73
2022-08-14T00:42:55.725Z,6.37
2022-08-14T00:45:18.585Z,6.03
2022-08-14T00:47:50.895Z,6.17
2022-08-14T00:50:22.202Z,6.47
2022-08-14T00:52:53.323Z,6.20
2022-08-14T00:55:22.018Z,6.17
2022-08-14T00:58:12.187Z,5.73
2022-08-14T01:00:47.353Z,5.87
2022-08-14T01:03:27.637Z,6.40
2022-08-14T01:06:00.751Z,6.60
2022-08-14T01:08:51.355Z,6.30
2022-08-14T01:11:35.534Z,6.07
2022-08-14T01:14:25.342Z,6.60
2022-08-14T01:16:55.691Z,6.40
2022-08-14T01:19:41.662Z,5.73
2022-08-14T01:22:13.392Z,5.80
2022-08-14T01:24:47.002Z,6.03
2022-08-14T01:27:20.004Z,6.00
2022-08-14T01:30:01.432Z,6.30
2022-08-14T01:32:35.622Z,6.07
2022-08-14T01:35:18.975Z,6.43
2022-08-14T01:38:00.733Z,5.97
2022-08-14T01:40:36.689Z,5.87
2022-08-14T01:43:18.838Z,5.50
2022-08-14T01:46:05.694Z,5.80
2022-08-14T01:48:37.047Z,5.70
2022-08-14T01:51:19.340Z,6.33
2022-08-14T01:53:55.306Z,6.00
2022-08-14T01:56:37.541Z,6.67
2022-08-14T01:59:19.951Z,5.77
2022-08-14T02:01:58.677Z,6.30
2022-08-14T02:04:56.026Z,5.87
2022-08-14T02:07:34.424Z,6.47
2022-08-14T02:10:13.217Z,6.83
2022-08-14T02:12:44.869Z,6.27
2022-08-14T02:15:22.391Z,6.43
2022-08-14T02:17:51.737Z,7.27
2022-08-14T02:20:23.822Z,6.77
2022-08-14T02:22:54.545Z,6.87
2022-08-14T02:25:24.672Z,7.00
2022-08-14T02:28:24.454Z,7.10
2022-08-14T02:30:48.275Z,6.97
2022-08-14T02:33:23.325Z,7.47
2022-08-14T02:36:04.913Z,7.17
2022-08-14T02:38:41.409Z,7.10
2022-08-14T02:41:14.893Z,6.63
2022-08-14T02:43:46.552Z,6.73
2022-08-14T02:46:20.411Z,6.73
2022-08-14T02:49:04.363Z,7.80
2022-08-14T02:51:34.679Z,6.77
2022-08-14T02:54:05.062Z,6.80
2022-08-14T02:57:15.530Z,7.13
2022-08-14T02:59:29.591Z,7.40
2022-08-14T03:02:03.186Z,6.87
2022-08-14T03:04:31.451Z,7.53
2022-08-14T03:07:07.308Z,7.10
2022-08-14T03:10:25.122Z,7.13
2022-08-14T03:12:32.071Z,6.97
2022-08-14T03:15:16.249Z,7.57
2022-08-14T03:17:57.636Z,7.90
2022-08-14T03:20:28.947Z,7.20
2022-08-14T03:22:59.477Z,6.90
2022-08-14T03:25:33.318Z,6.97
2022-08-14T03:28:05.381Z,6.80
2022-08-14T03:30:39.137Z,7.47
2022-08-14T03:33:10.244Z,7.63
2022-08-14T03:36:05.645Z,7.73
2022-08-14T03:39:13.173Z,7.47
2022-08-14T03:41:17.709Z,8.10
2022-08-14T03:43:47.666Z,8.23
2022-08-14T03:46:51.925Z,7.97
2022-08-14T03:49:16.401Z,8.17
2022-08-14T03:51:52.406Z,8.00
2022-08-14T03:54:21.888Z,7.37
2022-08-14T03:56:52.121Z,8.13
2022-08-14T03:59:22.434Z,8.13
2022-08-14T04:01:57.902Z,7.40
2022-08-14T04:04:29.553Z,7.80
2022-08-14T04:06:59.197Z,7.60
2022-08-14T04:09:27.513Z,7.87
2022-08-14T04:11:57.992Z,7.27
2022-08-14T04:14:29.428Z,7.80
2022-08-14T04:16:57.642Z,7.90
2022-08-14T04:19:28.149Z,8.10
2022-08-14T04:22:04.096Z,7.73
2022-08-14T04:24:38.436Z,7.33
2022-08-14T04:27:17.103Z,8.40
2022-08-14T04:29:46.712Z,7.53
2022-08-14T04:32:59.157Z,9.10
2022-08-14T04:35:07.578Z,7.10
2022-08-14T04:37:55.967Z,7.70
2022-08-14T04:40:42.280Z,7.30
2022-08-14T04:43:38.186Z,8.00
2022-08-14T04:46:11.875Z,7.30
2022-08-14T04:49:02.283Z,7.90
2022-08-14T04:51:47.015Z,7.60
2022-08-14T04:54:18.707Z,7.50
2022-08-14T04:56:46.529Z,8.23
2022-08-14T04:59:14.388Z,7.60
2022-08-14T05:01:48.033Z,8.07
2022-08-14T05:04:20.204Z,7.80
2022-08-14T05:06:49.485Z,8.17
2022-08-14T05:09:21.607Z,7.50
2022-08-14T05:11:49.919Z,8.47
2022-08-14T05:14:45.963Z,8.37
2022-08-14T05:17:13.074Z,8.77
2022-08-14T05:19:44.288Z,7.83
2022-08-14T05:22:28.920Z,9.03
2022-08-14T05:25:00.239Z,8.40
2022-08-14T05:27:31.153Z,8.43
2022-08-14T05:30:05.079Z,8.33
2022-08-14T05:32:38.872Z,8.77
2022-08-14T05:35:07.557Z,8.20
2022-08-14T05:37:35.821Z,7.43
2022-08-14T05:40:04.616Z,7.37
2022-08-14T05:42:34.446Z,7.73
2022-08-14T05:45:04.593Z,7.70
2022-08-14T05:47:34.145Z,8.33
2022-08-14T05:50:18.923Z,8.17
2022-08-14T05:52:49.341Z,8.30
2022-08-14T05:55:21.948Z,7.40
2022-08-14T05:57:54.427Z,7.90
2022-08-14T06:00:29.284Z,7.63
2022-08-14T06:03:07.066Z,7.40
2022-08-14T06:05:38.640Z,7.53
2022-08-14T06:08:08.505Z,7.50
2022-08-14T06:10:52.187Z,7.30
2022-08-14T06:13:20.869Z,7.40
2022-08-14T06:15:52.092Z,7.88
2022-08-14T06:18:21.269Z,7.30
2022-08-14T06:20:57.608Z,6.65
2022-08-14T06:23:25.614Z,7.97
2022-08-14T06:25:55.483Z,7.38
2022-08-14T06:28:28.011Z,6.90
2022-08-14T06:30:59.190Z,7.10
2022-08-14T06:33:30.048Z,6.95
2022-08-14T06:36:19.098Z,7.10
2022-08-14T06:38:50.289Z,7.32
2022-08-14T06:41:20.811Z,6.97
2022-08-14T06:44:09.698Z,7.35
2022-08-14T06:46:38.252Z,7.05
2022-08-14T06:49:06.469Z,6.50
2022-08-14T06:51:38.829Z,6.40
2022-08-14T06:54:12.639Z,6.40
2022-08-14T06:56:44.079Z,6.55
2022-08-14T06:59:16.005Z,6.95
2022-08-14T07:02:05.484Z,6.07
2022-08-14T07:04:50.887Z,6.13
2022-08-14T07:07:20.406Z,6.40
2022-08-14T07:09:51.007Z,6.28
2022-08-14T07:12:44.861Z,6.60
2022-08-14T07:15:08.418Z,6.90
2022-08-14T07:17:46.626Z,6.68
2022-08-14T07:20:30.571Z,6.13
2022-08-14T07:23:08.651Z,6.82
2022-08-14T07:25:42.206Z,6.80
2022-08-14T07:28:21.105Z,6.05
2022-08-14T07:30:51.009Z,6.60
2022-08-14T07:33:24.271Z,6.72
2022-08-14T07:36:03.363Z,7.07
2022-08-14T07:38:52.502Z,7.15
2022-08-14T07:41:20.636Z,7.45
2022-08-14T07:43:55.942Z,7.15
2022-08-14T07:46:28.658Z,7.20
2022-08-14T07:48:58.889Z,7.40
2022-08-14T07:51:34.256Z,8.00
2022-08-14T07:54:10.945Z,7.22
2022-08-14T07:56:47.007Z,7.45
2022-08-14T07:59:18.807Z,7.15
2022-08-14T08:01:48.378Z,7.50
2022-08-14T08:04:25.267Z,7.15
2022-08-14T08:06:55.209Z,7.30
2022-08-14T08:09:31.897Z,7.63
2022-08-14T08:12:04.650Z,7.47
2022-08-14T08:14:34.646Z,7.60
2022-08-14T08:17:34.852Z,7.72
2022-08-14T08:20:11.395Z,7.30
2022-08-14T08:22:40.908Z,7.70
2022-08-14T08:25:13.962Z,9.30
2022-08-14T08:27:58.784Z,7.50
2022-08-14T08:30:27.297Z,8.75
2022-08-14T08:33:03.106Z,7.45
2022-08-14T08:35:47.252Z,7.80
2022-08-14T08:39:18.341Z,7.15
2022-08-14T08:41:11.303Z,7.78
2022-08-14T08:43:46.331Z,7.70
2022-08-14T08:46:21.408Z,8.02
2022-08-14T08:51:30.840Z,8.15
2022-08-14T08:54:01.769Z,8.48
2022-08-14T08:56:46.112Z,7.88
2022-08-14T08:59:20.838Z,8.55
2022-08-14T09:01:58.589Z,8.80
2022-08-14T09:04:28.621Z,8.00
2022-08-14T09:07:09.551Z,8.07
2022-08-14T09:09:53.659Z,8.45
2022-08-14T09:12:23.966Z,7.97
2022-08-14T09:14:53.362Z,8.20
2022-08-14T09:17:25.828Z,8.93
2022-08-14T09:19:55.308Z,8.88
2022-08-14T09:22:35.427Z,8.55
2022-08-14T09:25:07.555Z,7.88
2022-08-14T09:27:39.717Z,8.45
2022-08-14T09:30:31.710Z,7.72
2022-08-14T09:33:36.531Z,7.75
2022-08-14T09:36:35.494Z,8.10
2022-08-14T09:39:14.881Z,7.80
2022-08-14T09:42:21.370Z,7.30
2022-08-14T09:45:08.707Z,8.25
2022-08-14T09:47:49.169Z,8.45
2022-08-14T09:50:25.811Z,8.05
2022-08-14T09:52:57.707Z,8.02
2022-08-14T09:55:28.171Z,8.13
2022-08-14T09:58:19.152Z,7.63
2022-08-14T10:00:53.992Z,7.68
2022-08-14T10:03:33.810Z,7.00
2022-08-14T10:06:07.252Z,8.32
2022-08-14T10:08:50.656Z,7.68
2022-08-14T10:11:23.118Z,7.72
2022-08-14T10:13:55.735Z,7.50
2022-08-14T10:16:33.423Z,8.10
2022-08-14T10:19:10.125Z,8.07
2022-08-14T10:23:11.248Z,6.63
2022-08-14T10:24:36.316Z,6.90
2022-08-14T10:27:06.467Z,7.95
2022-08-14T10:29:37.503Z,7.85
2022-08-14T10:32:17.367Z,7.05
2022-08-14T10:34:52.812Z,7.15
2022-08-14T10:37:23.645Z,7.22
2022-08-14T10:40:01.714Z,7.00
2022-08-14T10:42:38.278Z,7.43
2022-08-14T10:45:21.204Z,7.40
2022-08-14T10:48:09.733Z,7.95
2022-08-14T10:50:46.481Z,6.25
2022-08-14T10:53:19.877Z,6.47
2022-08-14T10:55:48.168Z,7.18
2022-08-14T10:58:34.177Z,7.70
2022-08-14T11:01:08.176Z,6.80
2022-08-14T11:03:56.817Z,7.38
2022-08-14T11:06:29.904Z,7.00
2022-08-14T11:09:09.579Z,6.68
2022-08-14T11:11:44.362Z,6.90
2022-08-14T11:14:22.602Z,7.28
2022-08-14T11:16:53.607Z,6.97
2022-08-14T11:19:28.994Z,7.18
2022-08-14T11:22:01.105Z,6.72
2022-08-14T11:24:55.257Z,7.30
2022-08-14T11:27:22.125Z,6.35
2022-08-14T11:30:50.710Z,6.80
2022-08-14T11:32:50.984Z,7.63
2022-08-14T11:35:37.055Z,6.88
2022-08-14T11:38:12.603Z,7.05
2022-08-14T11:40:40.599Z,6.93
2022-08-14T11:43:10.903Z,6.53
2022-08-14T11:45:41.427Z,7.00
2022-08-14T11:49:02.019Z,7.35
2022-08-14T11:51:13.966Z,6.97
2022-08-14T11:53:43.680Z,6.63
2022-08-14T11:56:17.550Z,6.95
2022-08-14T11:58:57.310Z,5.18
2022-08-14T12:01:28.867Z,6.45
2022-08-14T12:03:59.086Z,6.95
2022-08-14T12:06:39.489Z,5.97
2022-08-14T12:09:08.878Z,7.00
2022-08-14T12:11:46.868Z,7.25
2022-08-14T12:14:34.691Z,7.05
2022-08-14T12:17:06.629Z,6.88
2022-08-14T12:19:53.935Z,6.60
2022-08-14T12:22:35.485Z,7.03
2022-08-14T12:25:09.984Z,6.53
2022-08-14T12:27:46.765Z,7.25
2022-08-14T12:30:39.556Z,6.63
2022-08-14T12:33:25.692Z,7.57
2022-08-14T12:35:57.913Z,6.85
2022-08-14T12:38:36.471Z,6.95
2022-08-14T12:41:10.181Z,7.03
2022-08-14T12:43:48.016Z,7.45
2022-08-14T12:46:28.520Z,7.90
2022-08-14T12:48:58.737Z,7.75
2022-08-14T12:51:28.362Z,7.22
2022-08-14T12:54:01.153Z,7.57
2022-08-14T12:56:32.931Z,7.25
2022-08-14T12:59:02.502Z,7.53
2022-08-14T13:01:59.875Z,7.40
2022-08-14T13:04:24.761Z,7.45
2022-08-14T13:06:53.858Z,7.28
2022-08-14T13:09:35.707Z,7.65
2022-08-14T13:12:31.244Z,8.30
2022-08-14T13:14:57.737Z,7.68
2022-08-14T13:17:26.993Z,7.40
2022-08-14T13:20:00.744Z,7.97
2022-08-14T13:22:38.426Z,7.55
2022-08-14T13:25:15.796Z,7.13
2022-08-14T13:27:46.380Z,7.45
2022-08-14T13:30:24.251Z,7.55
2022-08-14T13:32:53.860Z,7.55
2022-08-14T13:35:23.050Z,7.85
2022-08-14T13:37:53.417Z,6.90
2022-08-14T13:40:26.430Z,7.35
2022-08-14T13:42:57.322Z,7.38
2022-08-14T13:46:00.053Z,7.47
2022-08-14T13:48:27.787Z,7.10
2022-08-14T13:51:04.745Z,7.15
2022-08-14T13:53:35.058Z,7.20
2022-08-14T13:56:07.988Z,7.47
2022-08-14T13:58:47.046Z,7.13
2022-08-14T14:01:17.416Z,7.47
2022-08-14T14:03:51.454Z,6.60
2022-08-14T14:06:24.656Z,7.18
2022-08-14T14:08:59.061Z,6.78
2022-08-14T14:11:32.811Z,6.75
2022-08-14T14:14:02.694Z,6.50
2022-08-14T14:16:33.003Z,6.43
2022-08-14T14:19:09.749Z,7.30
2022-08-14T14:21:40.587Z,7.07
2022-08-14T14:24:14.721Z,7.55
2022-08-14T14:26:49.922Z,7.28
2022-08-14T14:29:24.212Z,6.85
2022-08-14T14:31:58.627Z,6.82
2022-08-14T14:34:33.288Z,6.82
2022-08-14T14:37:04.423Z,5.60
2022-08-14T14:39:38.088Z,7.10
2022-08-14T14:42:31.835Z,6.18
2022-08-14T14:45:05.670Z,7.35
2022-08-14T14:47:35.222Z,6.45
2022-08-14T14:50:04.987Z,6.90
2022-08-14T14:52:39.725Z,7.28
2022-08-14T14:55:18.789Z,7.32
2022-08-14T14:57:52.123Z,6.97
2022-08-14T15:00:31.000Z,7.20
2022-08-14T15:02:59.948Z,6.78
2022-08-14T15:05:35.200Z,6.68
2022-08-14T15:08:03.262Z,7.15
2022-08-14T15:10:40.050Z,7.88
2022-08-14T15:13:14.174Z,6.90
2022-08-14T15:15:44.575Z,7.30
2022-08-14T15:18:36.149Z,7.05
2022-08-14T15:21:07.927Z,7.32
2022-08-14T15:23:44.103Z,7.35
2022-08-14T15:26:23.873Z,7.43
2022-08-14T15:29:04.937Z,6.97
2022-08-14T15:31:34.843Z,7.22
2022-08-14T15:34:43.155Z,7.05
2022-08-14T15:37:12.664Z,7.65
2022-08-14T15:39:41.991Z,7.18
2022-08-14T15:42:15.782Z,7.10
2022-08-14T15:44:57.752Z,7.15
2022-08-14T15:47:30.673Z,6.47
2022-08-14T15:50:00.601Z,7.18
2022-08-14T15:52:33.165Z,7.43
2022-08-14T15:55:04.600Z,7.03
2022-08-14T15:57:32.448Z,6.95
2022-08-14T16:00:40.163Z,7.13
2022-08-14T16:03:14.057Z,7.68
2022-08-14T16:05:43.663Z,6.80
2022-08-14T16:08:27.105Z,7.05
2022-08-14T16:10:59.100Z,7.45
2022-08-14T16:13:40.584Z,7.95
2022-08-14T16:16:35.017Z,6.75
2022-08-14T16:19:11.221Z,7.97
2022-08-14T16:22:02.192Z,8.35
2022-08-14T16:24:34.708Z,7.82
2022-08-14T16:27:05.115Z,8.50
2022-08-14T16:29:35.969Z,8.35
2022-08-14T16:32:32.464Z,8.18
2022-08-14T16:35:01.178Z,7.85
2022-08-14T16:37:34.289Z,7.68
2022-08-14T16:40:04.277Z,8.25
2022-08-14T16:43:02.570Z,7.47
2022-08-14T16:45:25.712Z,7.38
2022-08-14T16:47:59.131Z,7.53
2022-08-14T16:50:40.702Z,7.00
2022-08-14T16:53:12.328Z,7.22
2022-08-14T16:55:53.231Z,7.22
2022-08-14T16:58:29.652Z,6.93
2022-08-14T17:01:24.521Z,6.45
2022-08-14T17:03:58.151Z,7.10
2022-08-14T17:06:45.874Z,6.13
2022-08-14T17:09:35.686Z,6.10
2022-08-14T17:12:09.357Z,6.20
2022-08-14T17:15:03.314Z,6.60
2022-08-14T17:17:49.908Z,6.70
2022-08-14T17:20:54.802Z,6.05
2022-08-14T17:23:16.206Z,7.63
2022-08-14T17:25:50.890Z,6.82
2022-08-14T17:28:51.182Z,6.20
2022-08-14T17:31:08.995Z,6.88
2022-08-14T17:33:44.171Z,6.65
2022-08-14T17:36:20.714Z,6.95
2022-08-14T17:42:02.879Z,7.05
2022-08-14T17:44:45.141Z,7.00
2022-08-14T17:47:18.616Z,6.90
2022-08-14T17:49:53.716Z,7.00
2022-08-14T17:52:36.482Z,7.05
2022-08-14T17:56:01.038Z,7.22
2022-08-14T17:58:16.499Z,6.80
2022-08-14T18:00:51.432Z,6.63
2022-08-14T18:03:44.901Z,6.72
2022-08-14T18:06:39.103Z,6.40
2022-08-14T18:09:02.093Z,7.30
2022-08-14T18:11:45.815Z,6.85
2022-08-14T18:14:31.653Z,7.10
2022-08-14T18:17:05.572Z,7.55
2022-08-14T18:19:38.092Z,7.65
2022-08-14T18:22:23.633Z,7.57
2022-08-14T18:25:02.303Z,7.50
2022-08-14T18:27:41.697Z,8.27
2022-08-14T18:30:32.045Z,8.18
2022-08-14T18:33:35.148Z,8.38
2022-08-14T18:36:47.535Z,7.90
2022-08-14T18:39:34.650Z,8.23
2022-08-14T18:43:04.085Z,8.02
2022-08-14T18:45:43.061Z,8.85
2022-08-14T18:48:51.655Z,7.97
2022-08-14T18:51:51.625Z,8.65
2022-08-14T18:54:59.040Z,7.97
2022-08-14T18:58:34.192Z,9.07
2022-08-14T19:01:33.693Z,8.45
2022-08-14T19:04:50.358Z,8.20
2022-08-14T19:08:12.582Z,8.38
2022-08-14T19:11:43.363Z,8.73
2022-08-14T19:14:41.932Z,8.98
2022-08-14T19:18:13.830Z,8.18
2022-08-14T19:24:43.978Z,8.07
2022-08-14T19:27:55.597Z,7.90
2022-08-14T19:45:05.141Z,8.65
2022-08-14T19:51:23.192Z,8.18
2022-08-14T19:58:57.579Z,8.07
2022-08-14T20:01:18.454Z,8.27
2022-08-14T20:11:01.368Z,8.10
2022-08-14T20:15:53.098Z,8.10
2022-08-14T20:18:50.645Z,7.72
2022-08-14T20:28:59.432Z,8.05
2022-08-14T20:32:53.201Z,7.70
2022-08-14T20:36:26.683Z,8.20
2022-08-14T20:40:23.805Z,7.85
2022-08-14T20:53:37.470Z,7.82
2022-08-14T20:58:44.638Z,7.65
2022-08-14T21:00:58.842Z,7.85
2022-08-14T21:08:02.673Z,8.43
2022-08-14T21:14:38.638Z,8.63
2022-08-14T21:17:49.089Z,8.50
2022-08-14T21:20:36.435Z,8.05
2022-08-14T21:23:58.914Z,8.00
2022-08-14T21:27:00.351Z,8.07
2022-08-14T21:30:51.648Z,7.88
2022-08-14T21:37:33.554Z,8.00
2022-08-14T21:44:00.514Z,8.25
2022-08-14T21:50:39.577Z,8.57
2022-08-14T21:53:59.892Z,8.63
2022-08-14T22:00:58.577Z,9.05
2022-08-14T22:04:33.331Z,8.93
2022-08-14T22:11:21.705Z,8.65
2022-08-14T22:17:22.876Z,8.85
2022-08-14T22:19:55.048Z,8.32
2022-08-14T22:22:26.316Z,8.77
2022-08-14T22:24:59.934Z,9.07
2022-08-14T22:27:32.169Z,8.52
2022-08-14T22:30:01.090Z,8.93
2022-08-14T22:32:55.973Z,8.40
2022-08-14T22:35:18.867Z,8.48
2022-08-14T22:38:01.466Z,8.77
2022-08-14T22:41:07.426Z,8.80
2022-08-14T22:43:31.408Z,9.43
2022-08-14T22:46:02.234Z,9.27
2022-08-14T22:48:30.652Z,9.43
2022-08-14T22:50:58.405Z,8.35
2022-08-14T22:53:29.284Z,8.63
2022-08-14T22:55:57.853Z,8.82
2022-08-14T22:58:30.330Z,8.68
2022-08-14T23:01:02.379Z,9.40
2022-08-14T23:03:34.384Z,8.45
2022-08-14T23:06:04.306Z,8.30
2022-08-14T23:08:57.827Z,8.13
2022-08-14T23:11:30.209Z,8.15
2022-08-14T23:14:00.889Z,8.88
2022-08-14T23:16:32.171Z,8.55
2022-08-14T23:19:00.267Z,8.88
2022-08-14T23:21:28.890Z,8.25
2022-08-14T23:23:58.398Z,9.05
2022-08-14T23:26:47.870Z,8.55
2022-08-14T23:29:18.483Z,8.90
2022-08-14T23:31:48.393Z,8.40
2022-08-14T23:34:21.090Z,9.23
2022-08-14T23:36:53.040Z,8.43
2022-08-14T23:39:24.260Z,8.55
2022-08-14T23:41:53.789Z,9.02
2022-08-14T23:44:23.914Z,8.90
2022-08-14T23:46:56.912Z,8.82
2022-08-14T23:49:56.721Z,9.52
2022-08-14T23:52:50.272Z,9.15
2022-08-14T23:55:11.502Z,8.88
2022-08-14T23:57:44.220Z,8.45
